NCAR-RAP Real-Time Weather Data

Output produced by METARs form (21 May 2019  11:41 UTC)
found at http://weather.rap.ucar.edu/surface/
 
RJSF 211100Z 36011KT 9999 FEW010 BKN040 15/07 Q1004
RJSF 211000Z 36010KT 9999 FEW010 BKN035 BKN040 14/08 Q1004
RJSF 210900Z 01009KT 9999 FEW010 BKN040 BKN050 14/08 Q1003
RJSF 210800Z 01010KT 9999 FEW010 BKN040 BKN050 14/10 Q1003
RJSF 210700Z 04007KT 9999 -SHRA FEW005 SCT030 BKN040 13/12 Q1004
RJSF 210610Z 35014KT 7000 -SHRA FEW003 SCT020 BKN030 13/11 Q1004 RMK 1ST003 4CU020 7CU030 A2965
RJSF 210600Z 35016KT 4000 SHRA BR FEW003 SCT020 BKN040 13/12 Q1003
RJSF 210526Z 36013KT 3000 SHRA BR FEW003 SCT005 BKN030 15/15 Q1003 RMK 1ST003 3ST005 7CU030 A2963
RJSF 210500Z 04006KT 1500 R01/P1800N +SHRA BR FEW001 SCT003 BKN030 16/16 Q1003
RJSF 210443Z 04005KT 1500 R01/P1800N +SHRA BR FEW001 SCT003 BKN030 16/16 Q1003 RMK 1ST001 3ST003 7CU030 A2963
RJSF 210421Z 03006KT 1500 R01/P1800N SHRA BR FEW002 SCT003 BKN025 16/16 Q1003 RMK 2ST002 3ST003 7CU025 A2963
RJSF 210400Z 33007KT 1500 R01/1700D +SHRA BR FEW002 SCT003 BKN005 16/16 Q1003
RJSF 210338Z 33006KT 290V020 1200 R01/1300VP1800N +SHRA BR FEW002 SCT004 BKN006 17/17 Q1003 RMK 1ST002 3ST004 7ST006 A2963
RJSF 210326Z 33007KT 300V010 1500 R01/1500U +SHRA BR FEW002 SCT004 BKN015 17/17 Q1003 RMK 1ST002 3ST004 7CU015 A2962
RJSF 210317Z 32007KT 1500 R01/1400U +SHRA BR FEW002 SCT003 BKN009 17/17 Q1003 RMK 1ST002 3ST003 7ST009 A2962
RJSF 210300Z 26006KT 200V310 1500 R01/1700U +SHRA BR FEW003 SCT004 BKN005 17/17 Q1003
RJSF 210236Z 33003KT 270V040 1500 R01/0800V1500D +SHRA BR FEW003 SCT009 BKN010 17/17 Q1002 RMK 1ST003 3ST009 7ST010 A2961
RJSF 210219Z VRB02KT 2000 R01/0900VP1800D +SHRA BR FEW002 BKN015 BKN020 17/17 Q1002 RMK 1ST002 5CU015 7CU020 A2961
RJSF 210200Z VRB01KT 2000 R01/1100VP1800N SHRA BR FEW002 SCT020 BKN025 17/17 Q1002
RJSF 210149Z VRB01KT 2000 R01/1100VP1800U SHRA BR FEW002 SCT011 BKN015 17/17 Q1003 RMK 1ST002 3ST011 7CU015 A2963
RJSF 210130Z 25004KT 210V280 2000 R01/1700U +SHRA BR FEW008 SCT012 BKN020 17/17 Q1003 RMK 1ST008 3ST012 7CU020 A2964
RJSF 210100Z 17007KT 3000 R01/1800D SHRA BR FEW008 BKN020 BKN035 17/17 Q1003
RJSF 210039Z 15009KT 3000 SHRA BR FEW008 BKN020 BKN035 17/17 Q1003 RMK 1ST008 5CU020 7CU035 A2964
RJSF 210016Z 17009KT 4000 R01/1800D SHRA BR FEW010 BKN020 BKN035 17/17 Q1004 RMK 1ST010 5CU020 7CU035 A2966
RJSF 210000Z 16010KT 5000 SHRA BR FEW012 BKN020 BKN070 17/16 Q1004
RJSF 202300Z 16014KT 4000 SHRA BR FEW012 BKN020 BKN060 17/16 Q1004
RJSF 202246Z 17013KT 5000 SHRA BR FEW010 BKN015 BKN020 17/16 Q1005 RMK 1ST010 5CU015 7CU020 A2968
RJSF 202200Z 17014KT 130V200 9999 -SHRA FEW010 SCT012 BKN015 18/15 Q1005
RJSF 202140Z 17014KT 9999 -SHRA FEW010 SCT012 BKN015 18/15 Q1005 RMK 1ST010 3ST012 7CU015 A2969
RJSF 201100Z 17017KT 9999 FEW015 SCT070 BKN/// 16/13 Q1013
RJSF 201000Z 17014KT 9999 -SHRA FEW015 SCT030 BKN070 16/14 Q1013
RJSF 200900Z 18016KT 9999 FEW015 SCT040 BKN045 17/13 Q1013
RJSF 200800Z 18014KT 9999 FEW015 BKN030 BKN045 16/15 Q1013
RJSF 200700Z 19020G31KT 9999 -SHRA FEW025 SCT045 BKN050 17/13 Q1013
RJSF 200600Z 19016KT 160V230 9999 FEW030 SCT040 BKN050 21/14 Q1013
RJSF 200500Z 19017KT 150V220 9999 VCSH FEW030 SCT040 BKN070 22/12 Q1014
RJSF 200400Z 18014KT 150V210 9999 -SHRA FEW030 BKN040 BKN050 19/12 Q1015
RJSF 200300Z 18016KT 9999 FEW025 SCT040 BKN050 20/11 Q1016
RJSF 200200Z 18017KT 9999 FEW020 SCT030 BKN050 20/12 Q1016
RJSF 200100Z 18016KT 9999 FEW020 SCT025 BKN045 19/11 Q1017
RJSF 200000Z 18018KT 9999 FEW015 SCT030 BKN045 19/12 Q1017
RJSF 192300Z 18015KT 140V210 9999 FEW012 SCT025 BKN/// 18/12 Q1018
RJSF 192200Z 17014KT 9999 FEW010 BKN050 BKN/// 16/12 Q1018
RJSF 192140Z 17012KT 9999 FEW010 SCT050 BKN/// 16/12 Q1019 RMK 1ST010 3SC050 A3009
RJSF 191100Z 16010KT 9999 FEW015 15/11 Q1022
RJSF 191000Z 15010KT 120V200 9999 FEW020 16/11 Q1021
RJSF 190900Z 16011KT 130V190 9999 FEW025 18/11 Q1021
RJSF 190800Z 14013KT 100V170 9999 FEW030 SCT050 19/12 Q1021
RJSF 190700Z 19013KT 9999 FEW030 22/11 Q1020
RJSF 190600Z 19013KT 160V220 9999 FEW035 SCT050 23/12 Q1020
RJSF 190500Z 19013KT 160V230 9999 FEW030 SCT050 22/10 Q1021
RJSF 190400Z 19012KT 160V230 9999 FEW030 SCT040 22/11 Q1021
RJSF 190300Z 19011KT 140V230 9999 FEW030 BKN050 BKN160 20/10 Q1022
RJSF 190200Z 20010KT 9999 FEW030 SCT040 BKN050 20/11 Q1023
RJSF 190100Z 20010KT 160V230 9999 FEW025 SCT040 BKN/// 19/12 Q1023
RJSF 190000Z 19010KT 9999 FEW020 BKN040 BKN/// 18/12 Q1023